This is the latest recevied weather packets stored in our database for station/object AA9VI-10. If no packets are shown the sender has not sent any weather packets the latest 1 day(s).
| Time | Temp. | Humidity | Pressure | Rain* | Wind** | Luminosity | Snow |
|---|---|---|---|---|---|---|---|
| 1778068818 | 3.89° C | 78% | 1012.3 hPa | 0 mm | - | - | - |
| 1778068218 | 3.89° C | 79% | 1012.1 hPa | 0 mm | - | - | - |
| 1778067618 | 3.33° C | 79% | 1012.1 hPa | 0 mm | - | - | - |
| 1778067018 | 3.33° C | 78% | 1012.1 hPa | 0 mm | - | - | - |
| 1778066418 | 3.33° C | 78% | 1012 hPa | 0 mm | - | - | - |
| 1778065818 | 2.78° C | 78% | 1012 hPa | 0 mm | - | - | - |
| 1778064018 | 3.33° C | 75% | 1011.6 hPa | 0 mm | - | - | - |
| 1778063418 | 3.33° C | 74% | 1011.4 hPa | 0 mm | - | - | - |
| 1778061618 | 3.89° C | 73% | 1011.3 hPa | 0 mm | - | - | - |
| 1778061018 | 3.89° C | 73% | 1011.4 hPa | 0 mm | - | - | - |
| 1778060418 | 3.89° C | 73% | 1011.3 hPa | 0 mm | - | - | - |
| 1778059818 | 3.89° C | 72% | 1011.2 hPa | 0 mm | - | - | - |
| 1778058618 | 3.89° C | 71% | 1011.4 hPa | 0 mm | - | - | - |
| 1778058018 | 3.89° C | 70% | 1011.5 hPa | 0 mm | - | - | - |
| 1778057418 | 3.89° C | 69% | 1011.4 hPa | 0 mm | - | - | - |
| 1778056818 | 3.89° C | 68% | 1011.1 hPa | 0 mm | - | - | - |
| 1778056218 | 4.44° C | 67% | 1011.1 hPa | 0 mm | - | - | - |
| 1778055018 | 5° C | 64% | 1011.2 hPa | 0 mm | - | - | - |
| 1778054418 | 5° C | 63% | 1011 hPa | 0 mm | - | - | - |
| 1778053818 | 5.56° C | 61% | 1010.9 hPa | 0 mm | - | - | - |
| 1778052618 | 6.11° C | 60% | 1011 hPa | 0 mm | - | - | - |
| 1778050218 | 7.22° C | 53% | 1010.7 hPa | 0 mm | - | - | - |
| 1778049017 | 7.78° C | 51% | 1011 hPa | 0 mm | - | - | - |
| 1778048418 | 7.78° C | 50% | 1011.1 hPa | 0 mm | - | - | - |
| 1778047218 | 8.33° C | 48% | 1010.9 hPa | 0 mm | - | - | - |
* Rain latest hour (hover to see other rain measurements)
** Current wind speed in m/s (hover to see current wind gust speed)